Time;durP1;ratioP1;P1;durP2;ratioP2;P2;SDS_P1;SDS_P2;PMS_P1;PMS_P2;Temp;Humidity;BMP_temperature;BMP_pressure;BME280_temperature;BME280_humidity;BME280_pressure;Samples;Min_cycle;Max_cycle;Signal;HPM_P1;HPM_P2
2023/12/21 00:02:08;;;;;;;4.80;2.70;;;1.20;99.90;4.00;96440.00;;;;4976599;28;20462;-70
2023/12/21 00:04:58;;;;;;;2.67;1.60;;;1.20;99.90;3.90;96429.00;;;;4985810;28;20527;-71
2023/12/21 00:07:47;;;;;;;3.77;2.13;;;1.20;99.90;3.80;96424.00;;;;4986770;28;20430;-71
2023/12/21 00:10:36;;;;;;;2.00;1.17;;;1.40;99.90;3.60;96417.00;;;;4988877;28;20524;-71
2023/12/21 00:13:27;;;;;;;3.67;2.07;;;1.30;99.90;3.40;96409.00;;;;4986089;28;20484;-71
2023/12/21 00:16:16;;;;;;;7.27;3.87;;;1.30;99.90;3.20;96408.00;;;;4988378;28;20426;-71
2023/12/21 00:19:05;;;;;;;4.93;2.57;;;1.10;99.90;3.50;96409.00;;;;4991254;28;20845;-70
2023/12/21 00:21:54;;;;;;;7.93;4.10;;;1.10;99.90;3.50;96408.00;;;;4985878;28;20454;-72
2023/12/21 00:24:43;;;;;;;3.57;2.00;;;1.10;99.90;3.60;96404.00;;;;4984739;28;20810;-70
2023/12/21 00:27:32;;;;;;;3.43;1.97;;;1.10;99.90;3.60;96406.00;;;;4993782;28;20441;-71
2023/12/21 00:30:22;;;;;;;4.37;2.43;;;1.10;99.90;3.60;96412.00;;;;4994358;28;20814;-71
2023/12/21 00:33:11;;;;;;;8.73;4.80;;;1.20;99.90;3.30;96406.00;;;;4966238;28;20454;-71
2023/12/21 00:36:00;;;;;;;3.60;2.23;;;1.00;99.90;3.40;96403.00;;;;4996793;28;20483;-69
2023/12/21 00:38:49;;;;;;;3.37;1.97;;;1.00;99.90;3.30;96413.00;;;;4985401;28;20810;-71
2023/12/21 00:41:38;;;;;;;2.70;1.67;;;1.00;99.90;3.30;96410.00;;;;4988733;28;20442;-71
2023/12/21 00:44:26;;;;;;;3.30;1.97;;;0.80;99.90;3.20;96408.00;;;;4987517;28;20421;-71
2023/12/21 00:47:17;;;;;;;7.00;3.93;;;0.80;99.90;3.30;96412.00;;;;4994120;28;20442;-71
2023/12/21 00:50:07;;;;;;;10.27;5.30;;;0.80;99.90;3.10;96408.00;;;;4973749;28;20450;-71
2023/12/21 00:52:56;;;;;;;5.33;2.87;;;0.80;99.90;3.00;96391.00;;;;4990814;28;20453;-71
2023/12/21 00:55:45;;;;;;;3.13;1.93;;;1.20;99.90;3.20;96392.00;;;;4997110;28;20457;-71
2023/12/21 00:58:34;;;;;;;2.97;1.77;;;0.70;99.90;3.10;96391.00;;;;4982384;28;20430;-69
2023/12/21 01:01:23;;;;;;;2.37;1.50;;;0.70;99.90;2.60;96389.00;;;;4981551;28;20434;-71
2023/12/21 01:04:13;;;;;;;4.93;3.07;;;0.70;99.90;2.30;96378.00;;;;4986518;28;21414;-70
2023/12/21 01:07:02;;;;;;;2.97;1.93;;;0.60;99.90;3.00;96377.00;;;;4987940;28;20445;-70
2023/12/21 01:09:51;;;;;;;3.23;2.03;;;0.60;99.90;3.30;96376.00;;;;4994588;28;20430;-71
2023/12/21 01:12:40;;;;;;;3.00;1.90;;;0.60;99.90;2.70;96379.00;;;;4989673;28;20438;-71
2023/12/21 01:15:29;;;;;;;3.00;2.00;;;0.60;99.90;2.90;96368.00;;;;4989239;28;20469;-71
2023/12/21 01:18:17;;;;;;;5.50;3.30;;;0.60;99.90;2.40;96365.00;;;;4996734;28;20433;-71
2023/12/21 01:21:08;;;;;;;5.40;3.20;;;0.50;99.90;2.70;96378.00;;;;4993629;28;20430;-71
2023/12/21 01:23:57;;;;;;;4.03;2.50;;;0.50;99.90;3.00;96361.00;;;;4988491;28;20446;-71
2023/12/21 01:26:46;;;;;;;4.67;2.60;;;0.50;99.90;3.40;96369.00;;;;4992652;28;20441;-70
2023/12/21 01:29:34;;;;;;;2.03;1.40;;;0.70;99.90;3.20;96364.00;;;;4988760;28;20448;-71
2023/12/21 01:32:23;;;;;;;3.20;2.00;;;0.70;99.90;3.50;96366.00;;;;4993242;28;20472;-70
2023/12/21 01:35:12;;;;;;;5.00;2.80;;;0.90;99.90;3.40;96373.00;;;;4972003;28;21326;-71
2023/12/21 01:38:03;;;;;;;3.83;2.23;;;0.70;99.90;3.50;96356.00;;;;4994264;28;20430;-71
2023/12/21 01:40:51;;;;;;;3.23;1.80;;;0.80;99.90;3.00;96347.00;;;;4986781;28;20426;-72
2023/12/21 01:43:40;;;;;;;4.30;2.50;;;0.80;99.90;3.30;96346.00;;;;4995118;28;20450;-72
2023/12/21 01:46:30;;;;;;;4.23;2.33;;;0.80;99.90;3.30;96331.00;;;;4992448;28;20442;-72
2023/12/21 01:49:20;;;;;;;5.10;3.03;;;0.80;99.90;3.20;96316.00;;;;4989738;28;20422;-73
2023/12/21 01:52:10;;;;;;;6.00;3.30;;;0.50;99.90;3.20;96344.00;;;;4992264;28;20450;-72
2023/12/21 01:55:01;;;;;;;4.07;2.40;;;0.80;99.90;3.30;96338.00;;;;4994113;28;20485;-72
2023/12/21 01:57:50;;;;;;;4.00;2.13;;;0.70;99.90;3.20;96347.00;;;;4993515;28;20521;-72
2023/12/21 02:00:39;;;;;;;3.77;2.10;;;0.70;99.90;3.30;96338.00;;;;4987337;28;20476;-72
2023/12/21 02:03:29;;;;;;;2.90;1.77;;;0.80;99.90;3.30;96345.00;;;;4999417;28;20456;-72
2023/12/21 02:06:19;;;;;;;4.03;2.53;;;0.70;99.90;2.90;96340.00;;;;4999247;28;20598;-72
2023/12/21 02:09:08;;;;;;;6.33;3.50;;;0.70;99.90;2.50;96336.00;;;;4993181;28;20441;-72
2023/12/21 02:11:58;;;;;;;6.07;3.37;;;0.50;99.90;2.60;96326.00;;;;4994813;28;20458;-72
2023/12/21 02:14:47;;;;;;;3.60;2.17;;;0.40;99.90;2.90;96332.00;;;;4986848;28;20466;-71
2023/12/21 02:17:37;;;;;;;3.77;2.27;;;0.50;99.90;2.90;96331.00;;;;4988288;28;20442;-72
2023/12/21 02:20:26;;;;;;;3.30;1.97;;;0.40;99.90;2.70;96328.00;;;;4993346;28;20432;-72
2023/12/21 02:23:17;;;;;;;5.60;3.43;;;0.40;99.90;2.70;96323.00;;;;4988602;28;20456;-72
2023/12/21 02:26:07;;;;;;;5.17;2.93;;;0.30;99.90;2.70;96308.00;;;;4990902;28;20422;-72
2023/12/21 02:28:56;;;;;;;1.93;1.20;;;0.30;99.90;2.70;96307.00;;;;4989449;28;20437;-71
2023/12/21 02:31:45;;;;;;;4.57;2.67;;;0.40;99.90;3.00;96320.00;;;;4990145;28;20433;-71
2023/12/21 02:34:35;;;;;;;17.83;9.20;;;0.50;99.90;3.00;96311.00;;;;4987788;28;20430;-71
2023/12/21 02:37:23;;;;;;;3.23;2.03;;;0.50;99.90;2.90;96312.00;;;;4989081;28;20646;-71
2023/12/21 02:40:13;;;;;;;6.83;4.10;;;0.50;99.90;3.00;96316.00;;;;4994412;28;20433;-72
2023/12/21 02:43:03;;;;;;;9.60;4.83;;;0.50;99.90;2.60;96324.00;;;;4996782;28;20457;-72
2023/12/21 02:45:52;;;;;;;3.33;2.00;;;0.30;99.90;2.60;96326.00;;;;5003371;28;20433;-72
2023/12/21 02:48:41;;;;;;;3.97;2.37;;;0.40;99.90;2.90;96333.00;;;;4992545;28;20445;-72
2023/12/21 02:51:30;;;;;;;3.50;2.13;;;0.30;99.90;3.00;96331.00;;;;4986405;28;20449;-72
2023/12/21 02:54:19;;;;;;;5.63;3.53;;;0.30;99.90;2.50;96321.00;;;;4993393;28;20442;-71
2023/12/21 02:57:08;;;;;;;3.93;2.33;;;0.30;99.90;2.90;96320.00;;;;4993445;28;20518;-72
2023/12/21 02:59:58;;;;;;;4.07;2.30;;;0.40;99.90;2.50;96318.00;;;;4993389;28;20805;-70
2023/12/21 03:02:47;;;;;;;1.53;1.07;;;0.30;99.90;2.80;96314.00;;;;4987879;28;20875;-72
2023/12/21 03:05:36;;;;;;;3.10;1.83;;;0.20;99.90;3.00;96331.00;;;;4997176;28;20430;-72
2023/12/21 03:08:25;;;;;;;1.57;1.13;;;0.30;99.90;2.50;96322.00;;;;4990861;28;20493;-72
2023/12/21 03:11:14;;;;;;;4.70;3.00;;;0.30;99.90;3.00;96318.00;;;;4994321;28;20943;-72
2023/12/21 03:14:03;;;;;;;3.63;2.20;;;0.30;99.90;3.10;96313.00;;;;4986376;28;20452;-72
2023/12/21 03:16:53;;;;;;;4.57;2.57;;;0.50;99.90;2.70;96302.00;;;;4990491;28;20542;-72
2023/12/21 03:19:42;;;;;;;3.43;1.90;;;0.30;99.90;2.20;96291.00;;;;4993227;28;20430;-74
2023/12/21 03:22:31;;;;;;;2.40;1.70;;;0.40;99.90;3.00;96301.00;;;;4986003;28;20445;-74
2023/12/21 03:25:20;;;;;;;5.10;3.23;;;0.50;99.90;3.30;96315.00;;;;4998268;28;20426;-74
2023/12/21 03:28:10;;;;;;;6.10;3.30;;;0.50;99.90;3.20;96301.00;;;;4989412;28;20449;-74
2023/12/21 03:30:59;;;;;;;3.73;2.27;;;0.60;99.90;3.10;96295.00;;;;4990412;28;20438;-74
2023/12/21 03:33:49;;;;;;;2.87;1.83;;;0.70;99.90;3.30;96305.00;;;;4992116;28;21009;-74
2023/12/21 03:36:38;;;;;;;4.23;2.37;;;0.70;99.90;3.30;96299.00;;;;4995060;28;20461;-74
2023/12/21 03:39:27;;;;;;;3.50;1.97;;;0.60;99.90;3.40;96286.00;;;;4998068;28;20425;-73
2023/12/21 03:42:15;;;;;;;3.97;2.23;;;0.80;99.90;3.40;96276.00;;;;4994820;28;20450;-74
2023/12/21 03:45:06;;;;;;;5.73;3.07;;;0.70;99.90;3.50;96277.00;;;;4990397;28;20433;-74
2023/12/21 03:47:54;;;;;;;3.97;2.20;;;0.70;99.90;3.50;96260.00;;;;4988388;28;20460;-74
2023/12/21 03:50:45;;;;;;;3.93;2.30;;;0.80;99.90;3.50;96254.00;;;;4994894;28;20433;-73
2023/12/21 03:53:33;;;;;;;4.57;2.50;;;0.80;99.90;3.50;96248.00;;;;4997643;28;20457;-74
2023/12/21 03:56:22;;;;;;;3.97;2.33;;;0.90;99.90;2.80;96240.00;;;;4989886;28;20468;-74
2023/12/21 03:59:12;;;;;;;8.07;4.20;;;0.60;99.90;2.70;96239.00;;;;4986554;28;20434;-74
2023/12/21 04:02:01;;;;;;;6.47;3.47;;;0.70;99.90;3.10;96237.00;;;;4988671;28;20457;-73
2023/12/21 04:04:50;;;;;;;3.10;1.77;;;0.70;99.90;3.20;96234.00;;;;4988981;28;20448;-74
2023/12/21 04:07:40;;;;;;;4.10;2.20;;;0.60;99.90;3.10;96234.00;;;;4989508;28;20810;-74
2023/12/21 04:10:29;;;;;;;2.93;1.67;;;0.70;99.90;3.30;96230.00;;;;4988479;28;20940;-73
2023/12/21 04:13:18;;;;;;;4.33;2.67;;;0.60;99.90;3.10;96210.00;;;;4982911;28;20454;-74
2023/12/21 04:16:08;;;;;;;5.03;2.73;;;0.60;99.90;3.20;96210.00;;;;4987796;28;20853;-74
2023/12/21 04:18:57;;;;;;;4.10;2.30;;;0.70;99.90;3.20;96206.00;;;;4997205;28;20476;-73
2023/12/21 04:21:46;;;;;;;4.90;2.63;;;0.70;99.90;3.00;96214.00;;;;4990522;28;20444;-73
2023/12/21 04:24:36;;;;;;;4.00;2.23;;;0.50;99.90;3.10;96215.00;;;;4992309;28;20434;-73
2023/12/21 04:27:25;;;;;;;3.17;2.00;;;0.60;99.90;3.10;96199.00;;;;4992288;28;20433;-74
2023/12/21 04:30:15;;;;;;;7.27;4.03;;;0.50;99.90;3.00;96197.00;;;;4992279;28;20431;-74
2023/12/21 04:33:04;;;;;;;8.00;4.13;;;0.50;99.90;2.90;96195.00;;;;4987661;28;20833;-74
2023/12/21 04:35:53;;;;;;;4.33;2.33;;;0.50;99.90;2.40;96182.00;;;;4987959;28;20848;-74
2023/12/21 04:38:42;;;;;;;1.07;0.90;;;0.40;99.90;2.80;96175.00;;;;4986519;28;20429;-74
2023/12/21 04:41:32;;;;;;;2.37;1.47;;;0.40;99.90;2.40;96174.00;;;;4983473;28;20978;-74
2023/12/21 04:44:21;;;;;;;4.63;2.77;;;0.30;99.90;2.20;96165.00;;;;4989524;28;20430;-71
2023/12/21 04:47:10;;;;;;;5.23;2.83;;;0.20;99.90;2.60;96158.00;;;;4993907;28;20437;-72
2023/12/21 04:49:59;;;;;;;5.20;2.80;;;0.20;99.90;2.80;96160.00;;;;4987691;28;20445;-72
2023/12/21 04:52:49;;;;;;;3.60;2.13;;;0.20;99.90;2.30;96147.00;;;;4987541;28;20453;-73
2023/12/21 04:55:38;;;;;;;4.20;2.47;;;0.20;99.90;2.40;96146.00;;;;4993296;28;20441;-72
2023/12/21 04:58:28;;;;;;;3.77;2.23;;;0.20;99.90;2.50;96158.00;;;;4991239;28;20432;-72
2023/12/21 05:01:18;;;;;;;5.10;3.20;;;0.10;99.90;2.50;96159.00;;;;4984791;28;20935;-72
2023/12/21 05:04:07;;;;;;;4.00;2.27;;;0.20;99.90;2.60;96166.00;;;;4995589;28;21250;-73
2023/12/21 05:06:57;;;;;;;5.23;3.00;;;0.10;99.90;2.60;96171.00;;;;4988475;28;20515;-72
2023/12/21 05:09:46;;;;;;;4.00;2.23;;;0.10;99.90;2.50;96157.00;;;;4991073;28;20426;-72
2023/12/21 05:12:34;;;;;;;3.30;2.00;;;0.10;99.90;1.80;96133.00;;;;4987599;28;20457;-72
2023/12/21 05:15:25;;;;;;;3.20;2.00;;;0.00;99.90;2.20;96142.00;;;;4995125;28;20441;-72
2023/12/21 05:18:14;;;;;;;5.23;3.10;;;0.00;99.90;2.30;96141.00;;;;4975948;28;20434;-72
2023/12/21 05:21:03;;;;;;;3.73;2.33;;;-0.10;99.90;2.20;96140.00;;;;4971786;28;20434;-72
2023/12/21 05:23:52;;;;;;;3.97;2.30;;;0.00;99.90;2.30;96129.00;;;;4988395;28;20464;-72
2023/12/21 05:26:41;;;;;;;3.13;2.00;;;-0.10;99.90;2.20;96129.00;;;;4996466;28;20422;-72
2023/12/21 05:29:29;;;;;;;4.57;2.63;;;-0.20;99.90;2.10;96116.00;;;;4979009;28;20445;-71
2023/12/21 05:32:20;;;;;;;6.70;3.73;;;-0.20;99.90;2.00;96107.00;;;;4984757;28;20446;-72
2023/12/21 05:35:09;;;;;;;6.00;3.33;;;-0.40;99.90;1.80;96102.00;;;;4990497;28;20437;-72
2023/12/21 05:37:58;;;;;;;3.53;2.23;;;-0.30;99.90;2.00;96104.00;;;;4991098;28;20457;-72
2023/12/21 05:40:47;;;;;;;4.07;2.43;;;-0.50;99.90;1.80;96112.00;;;;4991423;28;20563;-72
2023/12/21 05:43:36;;;;;;;3.37;2.10;;;-0.30;99.90;1.70;96101.00;;;;4986634;28;21043;-72
2023/12/21 05:46:24;;;;;;;2.60;1.70;;;-0.30;99.90;1.50;96098.00;;;;4992204;28;21012;-72
2023/12/21 05:49:15;;;;;;;4.87;3.03;;;-0.40;99.90;1.50;96103.00;;;;4988840;28;20437;-72
2023/12/21 05:52:04;;;;;;;3.37;2.30;;;-0.40;99.90;1.80;96096.00;;;;4977759;28;20510;-71
2023/12/21 05:54:53;;;;;;;4.27;2.70;;;-0.10;99.90;1.90;96078.00;;;;4993309;28;20935;-73
2023/12/21 05:57:43;;;;;;;3.97;2.40;;;-0.40;99.90;2.00;96081.00;;;;4993264;28;20476;-72
2023/12/21 06:00:32;;;;;;;3.43;2.27;;;-0.60;99.90;1.70;96070.00;;;;4991479;28;20436;-73
2023/12/21 06:03:21;;;;;;;4.77;3.10;;;-0.50;99.90;1.70;96065.00;;;;4982599;28;20454;-72
2023/12/21 06:06:13;;;;;;;5.67;3.20;;;-0.40;99.90;1.70;96063.00;;;;4996093;28;20469;-72
2023/12/21 06:09:02;;;;;;;3.53;2.23;;;-0.50;99.90;1.70;96067.00;;;;4991442;28;20430;-72
2023/12/21 06:11:51;;;;;;;5.07;2.93;;;-0.60;99.90;1.50;96053.00;;;;4996079;28;20425;-72
2023/12/21 06:14:39;;;;;;;3.00;1.90;;;-0.70;99.90;1.70;96065.00;;;;4996057;28;20923;-72
2023/12/21 06:17:28;;;;;;;4.07;2.47;;;-0.60;99.90;1.90;96054.00;;;;4976675;28;20465;-72
2023/12/21 06:20:17;;;;;;;4.97;3.00;;;-0.60;99.90;1.80;96066.00;;;;4982230;28;20843;-71
2023/12/21 06:23:08;;;;;;;7.07;4.00;;;-0.50;99.90;1.40;96065.00;;;;4987020;28;20469;-72
2023/12/21 06:25:56;;;;;;;4.30;2.63;;;-0.60;99.90;1.10;96047.00;;;;4986460;28;20440;-72
2023/12/21 06:28:46;;;;;;;1.70;1.40;;;-0.60;99.90;0.90;96065.00;;;;4993353;28;20429;-71
2023/12/21 06:31:34;;;;;;;3.07;2.03;;;-0.70;99.90;1.40;96064.00;;;;5000204;28;20461;-70
2023/12/21 06:34:25;;;;;;;3.63;2.67;;;-1.10;99.90;1.50;96056.00;;;;4993038;28;20422;-71
2023/12/21 06:37:14;;;;;;;6.50;3.87;;;-0.70;99.90;1.40;96046.00;;;;4988052;28;20473;-71
2023/12/21 06:40:07;;;;;;;6.67;3.77;;;-0.80;99.90;1.10;96048.00;;;;5000492;28;20424;-70
2023/12/21 06:42:56;;;;;;;3.50;2.37;;;-1.10;99.90;1.00;96057.00;;;;4994116;28;20526;-71
2023/12/21 06:45:47;;;;;;;3.30;2.10;;;-1.00;99.90;1.50;96062.00;;;;5001768;28;20810;-72
2023/12/21 06:48:36;;;;;;;3.43;2.30;;;-0.80;99.90;1.70;96052.00;;;;4989078;28;20445;-71
2023/12/21 06:51:25;;;;;;;3.07;2.10;;;-0.80;99.90;1.60;96053.00;;;;4986002;28;20446;-71
2023/12/21 06:56:43;;;;;;;3.43;2.10;;;-0.90;99.90;1.60;96057.00;;;;5047093;28;20475;-73
2023/12/21 06:59:32;;;;;;;3.67;2.13;;;-0.70;99.90;1.60;96048.00;;;;5043934;28;20778;-73
2023/12/21 07:02:20;;;;;;;7.10;4.23;;;-0.70;99.90;0.90;96046.00;;;;5041148;28;20423;-74
2023/12/21 07:05:10;;;;;;;5.13;2.90;;;-0.80;99.90;1.10;96047.00;;;;5043625;28;20438;-73
2023/12/21 07:07:59;;;;;;;3.30;2.07;;;-1.00;99.90;0.60;96046.00;;;;5047762;28;20423;-73
2023/12/21 07:10:47;;;;;;;2.90;1.97;;;-1.00;99.90;1.40;96047.00;;;;5049076;28;20423;-74
2023/12/21 07:13:38;;;;;;;2.83;2.00;;;-1.00;99.90;1.40;96041.00;;;;5046523;28;20459;-75
2023/12/21 07:16:26;;;;;;;3.90;2.40;;;-1.10;99.90;1.80;96049.00;;;;5045410;28;20816;-74
2023/12/21 07:19:15;;;;;;;6.70;3.63;;;-0.80;99.90;1.80;96038.00;;;;5044678;28;20434;-74
2023/12/21 07:22:05;;;;;;;2.97;1.93;;;-0.60;99.90;1.20;96019.00;;;;5046974;28;20427;-74
2023/12/21 07:24:54;;;;;;;4.23;2.57;;;-0.60;99.90;1.50;96016.00;;;;5044988;28;20439;-73
2023/12/21 07:27:43;;;;;;;5.33;3.07;;;-0.70;99.90;1.80;96024.00;;;;5040640;28;20443;-75
2023/12/21 07:30:33;;;;;;;4.87;2.80;;;-0.50;99.90;2.00;96025.00;;;;5046857;28;20428;-73
2023/12/21 07:33:22;;;;;;;7.07;4.03;;;-0.50;99.90;2.20;96045.00;;;;5044518;28;20986;-74
2023/12/21 07:36:11;;;;;;;5.57;3.03;;;-0.50;99.90;2.40;96024.00;;;;5046861;28;20423;-73
2023/12/21 07:39:00;;;;;;;3.93;2.27;;;-0.30;99.90;2.00;96020.00;;;;5043759;28;20949;-74
2023/12/21 07:41:49;;;;;;;5.87;3.13;;;-0.20;99.90;2.50;96026.00;;;;5042440;28;20439;-75
2023/12/21 07:44:38;;;;;;;4.53;2.37;;;-0.20;99.90;2.60;96018.00;;;;5043138;28;20435;-75
2023/12/21 07:47:28;;;;;;;5.50;3.07;;;-0.20;99.90;2.50;96014.00;;;;5045995;28;20419;-73
2023/12/21 07:50:17;;;;;;;6.27;3.47;;;-0.10;99.90;2.10;96009.00;;;;5043693;28;20434;-76
2023/12/21 07:53:06;;;;;;;7.33;3.57;;;0.00;99.90;1.90;95996.00;;;;5046407;28;20452;-74
2023/12/21 07:55:54;;;;;;;4.67;2.57;;;-0.20;99.90;1.30;95983.00;;;;5042366;28;20987;-74
2023/12/21 07:58:43;;;;;;;3.93;2.30;;;-0.20;99.90;1.50;95980.00;;;;5048173;28;20466;-74
2023/12/21 08:01:32;;;;;;;4.73;2.70;;;-0.20;99.90;1.40;95975.00;;;;5046085;28;20446;-73
2023/12/21 08:04:23;;;;;;;5.10;2.77;;;-0.30;99.90;1.70;95985.00;;;;5044505;28;20457;-74
2023/12/21 08:07:11;;;;;;;7.03;3.67;;;-0.40;99.90;1.90;95980.00;;;;5042024;28;20424;-73
2023/12/21 08:10:01;;;;;;;6.97;3.73;;;-0.20;99.90;2.20;95985.00;;;;5044789;28;20438;-73
2023/12/21 08:12:50;;;;;;;5.73;3.07;;;-0.10;99.90;3.00;95990.00;;;;5045959;28;20513;-74
2023/12/21 08:15:39;;;;;;;4.37;2.20;;;0.10;99.90;3.60;95995.00;;;;5046849;28;21108;-74
2023/12/21 08:18:28;;;;;;;2.40;1.53;;;0.50;99.90;3.80;95990.00;;;;5046567;28;20456;-74
2023/12/21 08:21:18;;;;;;;7.93;3.77;;;0.60;99.90;3.40;95983.00;;;;5045378;28;20431;-73
2023/12/21 08:24:09;;;;;;;2.77;1.50;;;0.90;99.90;3.50;95987.00;;;;5043964;28;20459;-73
2023/12/21 08:26:59;;;;;;;4.80;2.43;;;0.90;99.90;3.30;95985.00;;;;5045102;28;20424;-74
2023/12/21 08:29:48;;;;;;;4.43;2.20;;;1.10;99.90;4.00;95994.00;;;;5041586;28;20794;-74
2023/12/21 08:32:37;;;;;;;5.13;2.47;;;1.20;99.90;4.30;95985.00;;;;5046706;28;20479;-73
2023/12/21 08:35:26;;;;;;;7.43;3.70;;;1.30;99.90;3.60;95981.00;;;;5045131;28;20435;-74
2023/12/21 08:38:16;;;;;;;4.07;2.07;;;1.30;99.90;3.80;95976.00;;;;5044173;28;20471;-74
2023/12/21 08:41:05;;;;;;;5.23;2.43;;;1.40;99.90;3.80;95972.00;;;;5048661;28;20819;-74
2023/12/21 08:43:55;;;;;;;4.47;2.23;;;1.40;99.90;3.80;95965.00;;;;5046393;28;20451;-74
2023/12/21 08:46:44;;;;;;;4.57;2.20;;;1.40;99.90;3.90;95965.00;;;;5041999;28;20435;-74
2023/12/21 08:49:33;;;;;;;4.67;2.37;;;1.40;99.90;3.40;95976.00;;;;5044874;28;20430;-74
2023/12/21 08:52:22;;;;;;;9.93;4.30;;;1.40;99.90;3.80;95976.00;;;;5039131;28;20428;-74
2023/12/21 08:55:12;;;;;;;11.43;5.10;;;1.40;99.90;3.60;95961.00;;;;5044790;28;21855;-74
2023/12/21 08:58:01;;;;;;;4.37;2.33;;;1.30;99.90;3.50;95961.00;;;;5041622;28;20586;-74
2023/12/21 09:00:51;;;;;;;5.73;2.63;;;1.30;99.90;4.20;95962.00;;;;5041095;28;20451;-73
2023/12/21 09:03:40;;;;;;;3.80;1.90;;;1.40;99.90;4.20;95947.00;;;;5045206;28;20494;-74
2023/12/21 09:06:29;;;;;;;5.73;2.77;;;1.50;99.90;4.20;95950.00;;;;5049459;28;20415;-74
2023/12/21 09:09:18;;;;;;;9.73;4.23;;;1.60;99.90;4.50;95952.00;;;;5042186;28;20450;-74
2023/12/21 09:12:08;;;;;;;7.77;3.60;;;1.70;99.90;4.40;95938.00;;;;5038371;28;20444;-73
2023/12/21 09:15:01;;;;;;;4.40;2.10;;;1.80;99.90;4.30;95940.00;;;;5046153;28;20439;-73
2023/12/21 09:17:49;;;;;;;5.20;2.43;;;1.70;99.90;5.00;95929.00;;;;5041714;28;20432;-74
2023/12/21 09:20:38;;;;;;;4.83;2.27;;;2.00;99.90;4.70;95910.00;;;;5045384;28;20446;-74
2023/12/21 09:23:27;;;;;;;3.20;1.63;;;2.10;99.90;5.00;95911.00;;;;5045749;28;20443;-73
2023/12/21 09:26:16;;;;;;;8.50;3.90;;;2.30;99.90;5.20;95901.00;;;;5041398;28;20450;-72
2023/12/21 09:29:06;;;;;;;4.43;2.10;;;2.40;99.90;5.10;95885.00;;;;5046440;28;20203;-72
2023/12/21 09:31:56;;;;;;;10.13;4.50;;;2.70;99.90;5.80;95882.00;;;;5048460;28;20586;-73
2023/12/21 09:34:47;;;;;;;1.87;1.17;;;2.80;99.90;6.10;95882.00;;;;5050115;28;20223;-73
2023/12/21 09:37:36;;;;;;;3.97;1.90;;;3.00;99.90;5.80;95865.00;;;;5048120;28;20246;-73
2023/12/21 09:40:26;;;;;;;8.13;3.93;;;3.20;99.90;6.20;95861.00;;;;5048371;28;20212;-73
2023/12/21 09:43:18;;;;;;;10.20;4.63;;;3.30;99.90;6.70;95848.00;;;;5047191;28;20225;-73
2023/12/21 09:46:10;;;;;;;2.17;1.20;;;3.60;99.90;6.90;95849.00;;;;5049989;28;20230;-72
2023/12/21 09:48:59;;;;;;;4.93;2.37;;;3.70;99.90;6.80;95844.00;;;;5049893;28;20193;-73
2023/12/21 09:51:50;;;;;;;6.13;2.80;;;3.90;99.90;7.00;95846.00;;;;5054216;28;20204;-72
2023/12/21 09:54:42;;;;;;;5.53;2.50;;;4.00;99.90;7.00;95850.00;;;;5046202;28;20208;-73
2023/12/21 09:57:31;;;;;;;5.83;2.63;;;4.20;99.90;6.70;95837.00;;;;5049697;28;20203;-73
2023/12/21 10:00:21;;;;;;;5.27;2.57;;;4.20;99.90;7.20;95846.00;;;;5045537;28;20707;-73
2023/12/21 10:03:11;;;;;;;10.87;4.83;;;4.30;99.90;7.30;95840.00;;;;5044367;28;20235;-72
2023/12/21 10:06:00;;;;;;;4.93;2.30;;;4.30;99.90;6.90;95827.00;;;;5050426;28;20212;-72
2023/12/21 10:08:49;;;;;;;5.87;2.73;;;4.40;99.90;6.80;95811.00;;;;5052291;28;20196;-73
2023/12/21 10:11:37;;;;;;;6.30;2.97;;;4.50;99.90;6.90;95802.00;;;;5049305;28;20201;-72
2023/12/21 10:14:27;;;;;;;7.77;3.73;;;4.40;99.90;7.40;95788.00;;;;5048488;28;20220;-73
2023/12/21 10:17:19;;;;;;;8.37;3.73;;;4.50;99.90;7.70;95782.00;;;;5045883;28;20223;-73
2023/12/21 10:20:12;;;;;;;6.93;3.00;;;4.60;99.90;7.90;95781.00;;;;5054058;28;20224;-72
2023/12/21 10:23:01;;;;;;;8.30;3.67;;;4.70;99.90;8.20;95759.00;;;;5048953;28;20612;-72
2023/12/21 10:25:50;;;;;;;6.03;2.63;;;4.90;99.90;8.70;95748.00;;;;5049673;28;20209;-72
2023/12/21 10:28:39;;;;;;;4.57;2.10;;;5.20;99.90;9.00;95750.00;;;;5048313;28;20212;-72
2023/12/21 10:31:28;;;;;;;5.47;2.27;;;5.70;99.90;9.00;95735.00;;;;5044073;28;20204;-72
2023/12/21 10:34:17;;;;;;;9.07;3.83;;;6.10;99.90;9.00;95727.00;;;;5046915;28;20220;-72
2023/12/21 10:37:08;;;;;;;3.60;1.67;;;6.30;99.90;8.90;95710.00;;;;5047165;28;20869;-72
2023/12/21 10:39:58;;;;;;;5.87;2.50;;;6.30;99.90;8.60;95720.00;;;;5042634;28;20225;-72
2023/12/21 10:42:47;;;;;;;7.37;3.07;;;6.30;99.90;7.80;95720.00;;;;5048007;28;20221;-73
2023/12/21 10:45:37;;;;;;;5.43;2.27;;;6.10;99.90;7.70;95714.00;;;;5044323;28;20208;-73
2023/12/21 10:48:29;;;;;;;8.07;3.60;;;5.80;99.90;7.50;95711.00;;;;5047539;28;20201;-72
2023/12/21 10:51:20;;;;;;;7.70;3.40;;;5.60;99.90;7.70;95704.00;;;;5047208;28;20215;-72
2023/12/21 10:54:12;;;;;;;2.40;1.23;;;5.40;99.90;7.80;95702.00;;;;5050854;28;20223;-72
2023/12/21 10:57:02;;;;;;;5.63;2.60;;;5.30;99.90;7.70;95695.00;;;;5047373;28;20208;-72
2023/12/21 10:59:52;;;;;;;3.70;1.80;;;5.20;99.90;7.60;95681.00;;;;5049538;28;20216;-71
2023/12/21 11:02:44;;;;;;;5.33;2.30;;;5.10;99.90;7.40;95670.00;;;;5044168;28;20228;-71
2023/12/21 11:05:35;;;;;;;5.23;2.30;;;5.10;99.90;7.60;95656.00;;;;5048899;28;20197;-71
2023/12/21 11:08:24;;;;;;;8.47;3.80;;;5.10;99.90;7.50;95646.00;;;;5052492;28;20204;-71
2023/12/21 11:11:16;;;;;;;6.93;3.07;;;5.00;99.90;8.10;95646.00;;;;5046853;28;20661;-71
2023/12/21 11:14:05;;;;;;;7.40;3.07;;;5.10;99.90;8.10;95646.00;;;;5048526;28;20236;-71
2023/12/21 11:16:58;;;;;;;8.03;3.47;;;5.10;99.90;7.90;95639.00;;;;5045102;28;20922;-71
2023/12/21 11:19:49;;;;;;;4.70;2.20;;;5.20;99.90;7.80;95620.00;;;;5054288;28;20219;-71
2023/12/21 11:22:39;;;;;;;4.57;2.00;;;5.10;99.90;8.20;95608.00;;;;5047049;28;20240;-71
2023/12/21 11:25:29;;;;;;;5.07;2.37;;;5.10;99.90;8.30;95601.00;;;;5047767;28;20212;-71
2023/12/21 11:28:27;;;;;;;7.97;3.40;;;5.20;99.90;8.30;95591.00;;;;5051796;28;20196;-71
2023/12/21 11:31:18;;;;;;;6.80;2.97;;;5.20;99.90;8.20;95578.00;;;;5037208;28;20729;-71
2023/12/21 11:34:14;;;;;;;14.37;6.10;;;5.20;99.90;7.60;95565.00;;;;5044697;28;20315;-70
2023/12/21 11:37:23;;;;;;;5.97;2.60;;;5.20;99.90;7.70;95560.00;;;;5046349;28;20813;-71
2023/12/21 11:40:14;;;;;;;11.40;4.80;;;5.10;99.90;7.80;95562.00;;;;5045028;28;20229;-71
2023/12/21 11:43:08;;;;;;;7.10;3.00;;;5.10;99.90;7.70;95555.00;;;;5046599;28;20223;-70
2023/12/21 11:45:59;;;;;;;5.57;2.50;;;5.10;99.90;8.00;95547.00;;;;5047456;28;20207;-70
2023/12/21 11:48:48;;;;;;;6.10;2.60;;;5.10;99.90;8.10;95549.00;;;;5048168;28;20255;-70
2023/12/21 11:51:49;;;;;;;3.17;1.40;;;5.10;99.90;8.10;95536.00;;;;5040128;28;20574;-71
2023/12/21 11:54:38;;;;;;;4.07;2.00;;;5.10;99.90;8.20;95539.00;;;;5044853;28;20865;-70
2023/12/21 11:57:30;;;;;;;9.73;4.43;;;5.10;99.90;8.20;95523.00;;;;5045978;28;20208;-71
2023/12/21 12:00:20;;;;;;;8.33;3.57;;;5.10;99.90;8.00;95509.00;;;;5044752;28;20235;-71
2023/12/21 12:03:12;;;;;;;10.10;4.30;;;5.20;99.90;7.70;95493.00;;;;5045164;28;20673;-70
2023/12/21 12:06:03;;;;;;;5.73;2.57;;;5.10;99.90;7.80;95493.00;;;;5046562;28;20221;-71
2023/12/21 12:08:52;;;;;;;4.83;2.10;;;5.10;99.90;8.20;95500.00;;;;5044991;28;20201;-71
2023/12/21 12:11:41;;;;;;;5.90;2.50;;;5.10;99.90;7.70;95489.00;;;;5042941;28;20197;-70
2023/12/21 12:14:30;;;;;;;5.60;2.33;;;5.10;99.90;7.70;95481.00;;;;5044841;28;20237;-71
2023/12/21 12:17:20;;;;;;;7.17;3.20;;;5.10;99.90;7.70;95470.00;;;;5043043;28;20209;-71
2023/12/21 12:20:12;;;;;;;10.83;4.57;;;5.10;99.90;7.60;95468.00;;;;5046919;28;20217;-70
2023/12/21 12:23:01;;;;;;;8.67;3.70;;;5.00;99.90;7.70;95463.00;;;;5046113;28;20227;-71
2023/12/21 12:25:50;;;;;;;4.37;2.03;;;5.00;99.90;7.70;95445.00;;;;5051316;28;20204;-71
2023/12/21 12:28:40;;;;;;;5.00;2.30;;;5.00;99.90;8.10;95434.00;;;;5047138;28;20201;-70
2023/12/21 12:31:29;;;;;;;8.00;3.60;;;5.00;99.90;8.20;95420.00;;;;5045827;28;20200;-71
2023/12/21 12:34:18;;;;;;;8.07;3.43;;;5.10;99.90;8.00;95399.00;;;;5045092;28;20701;-71
2023/12/21 12:37:08;;;;;;;5.03;2.20;;;5.20;99.90;7.90;95390.00;;;;5047948;28;20766;-70
2023/12/21 12:39:57;;;;;;;7.67;3.23;;;5.20;99.90;8.10;95374.00;;;;5045464;28;20220;-70
2023/12/21 12:42:48;;;;;;;5.03;2.20;;;5.30;99.90;8.30;95365.00;;;;5039195;28;20229;-70
2023/12/21 12:45:37;;;;;;;6.73;2.83;;;5.30;99.90;8.50;95361.00;;;;5040055;28;20257;-70
2023/12/21 12:48:26;;;;;;;11.20;4.67;;;5.40;99.90;8.50;95359.00;;;;5040393;28;20205;-71
2023/12/21 12:51:16;;;;;;;10.63;4.23;;;5.50;99.90;8.50;95350.00;;;;5044473;28;20257;-70